createdAt,value
2022-09-28T00:00:24.956Z,985
2022-09-28T00:01:26.937Z,985
2022-09-28T00:02:28.865Z,985
2022-09-28T00:03:29.810Z,985
2022-09-28T00:04:30.810Z,985
2022-09-28T00:05:31.771Z,984.9
2022-09-28T00:06:32.818Z,985
2022-09-28T00:07:34.792Z,985
2022-09-28T00:08:36.767Z,984.9
2022-09-28T00:09:37.811Z,985
2022-09-28T00:10:38.850Z,984.9
2022-09-28T00:11:39.791Z,984.9
2022-09-28T00:12:40.799Z,984.9
2022-09-28T00:13:41.838Z,984.9
2022-09-28T00:14:43.930Z,984.9
2022-09-28T00:15:45.875Z,984.8
2022-09-28T00:16:46.882Z,984.9
2022-09-28T00:17:47.850Z,984.9
2022-09-28T00:18:48.870Z,984.8
2022-09-28T00:19:50.871Z,984.9
2022-09-28T00:20:52.799Z,984.9
2022-09-28T00:21:53.736Z,984.8
2022-09-28T00:22:54.772Z,984.8
2022-09-28T00:23:55.871Z,984.8
2022-09-28T00:24:56.750Z,984.7
2022-09-28T00:25:57.794Z,984.7
2022-09-28T00:26:58.801Z,984.6
2022-09-28T00:27:59.790Z,984.7
2022-09-28T00:29:02.482Z,984.7
2022-09-28T00:30:03.950Z,984.7
2022-09-28T00:31:05.936Z,984.6
2022-09-28T00:32:07.831Z,984.6
2022-09-28T00:33:09.911Z,984.6
2022-09-28T00:34:11.811Z,984.6
2022-09-28T00:35:12.831Z,984.6
2022-09-28T00:36:13.831Z,984.6
2022-09-28T00:37:14.790Z,984.6
2022-09-28T00:38:15.838Z,984.5
2022-09-28T00:39:16.871Z,984.5
2022-09-28T00:40:17.860Z,984.6
2022-09-28T00:41:18.872Z,984.6
2022-09-28T00:42:20.952Z,984.6
2022-09-28T00:43:22.851Z,984.6
2022-09-28T00:44:26.835Z,984.5
2022-09-28T00:45:27.824Z,984.5
2022-09-28T00:46:28.798Z,984.5
2022-09-28T00:47:29.878Z,984.5
2022-09-28T00:48:30.790Z,984.5
2022-09-28T00:49:31.738Z,984.5
2022-09-28T00:50:32.810Z,984.5
2022-09-28T00:51:33.910Z,984.5
2022-09-28T00:52:35.910Z,984.6
2022-09-28T00:53:37.930Z,984.6
2022-09-28T00:54:39.834Z,984.6
2022-09-28T00:55:41.831Z,984.6
2022-09-28T00:56:42.830Z,984.6
2022-09-28T00:57:43.870Z,984.6
2022-09-28T00:58:44.812Z,984.5
2022-09-28T00:59:45.770Z,984.5
2022-09-28T01:04:07.562Z,984.5
2022-09-28T01:05:08.834Z,984.5
2022-09-28T01:06:09.854Z,984.5
2022-09-28T01:07:10.895Z,984.5
2022-09-28T01:08:11.855Z,984.5
2022-09-28T01:09:13.002Z,984.5
2022-09-28T01:10:13.874Z,984.5
2022-09-28T01:11:14.864Z,984.4
2022-09-28T01:12:16.798Z,984.4
2022-09-28T01:13:17.795Z,984.4
2022-09-28T01:14:18.803Z,984.5
2022-09-28T01:15:19.835Z,984.4
2022-09-28T01:16:20.948Z,984.5
2022-09-28T01:17:22.815Z,984.5
2022-09-28T01:18:23.834Z,984.4
2022-09-28T01:19:24.822Z,984.4
2022-09-28T01:20:25.815Z,984.4
2022-09-28T01:21:26.814Z,984.4
2022-09-28T01:22:27.816Z,984.4
2022-09-28T01:23:28.848Z,984.4
2022-09-28T01:24:29.794Z,984.4
2022-09-28T01:25:30.794Z,984.4
2022-09-28T01:26:31.803Z,984.4
2022-09-28T01:27:32.795Z,984.3
2022-09-28T01:28:33.896Z,984.4
2022-09-28T01:29:34.814Z,984.3
2022-09-28T01:30:35.974Z,984.4
2022-09-28T01:31:37.961Z,984.4
2022-09-28T01:32:38.914Z,984.4
2022-09-28T01:33:39.814Z,984.3
2022-09-28T01:34:40.823Z,984.4
2022-09-28T01:35:41.794Z,984.4
2022-09-28T01:36:42.805Z,984.3
2022-09-28T01:37:44.829Z,984.3
2022-09-28T01:38:46.894Z,984.3
2022-09-28T01:39:48.854Z,984.3
2022-09-28T01:40:50.978Z,984.3
2022-09-28T01:41:52.813Z,984.3
2022-09-28T01:42:53.854Z,984.3
2022-09-28T01:43:55.874Z,984.3
2022-09-28T01:44:57.859Z,984.3
2022-09-28T01:45:58.900Z,984.3
2022-09-28T01:46:59.817Z,984.3
2022-09-28T01:48:00.893Z,984.3
2022-09-28T01:49:01.815Z,984.3
2022-09-28T01:50:02.929Z,984.3
2022-09-28T01:51:03.835Z,984.2
2022-09-28T01:52:04.875Z,984.2
2022-09-28T01:53:05.854Z,984.2
2022-09-28T01:54:06.875Z,984.3
2022-09-28T01:55:07.819Z,984.2
2022-09-28T01:56:08.854Z,984.2
2022-09-28T01:57:09.855Z,984.2
2022-09-28T01:58:10.843Z,984.2
2022-09-28T01:59:11.975Z,984.2
2022-09-28T02:00:12.954Z,984.3
2022-09-28T02:01:14.898Z,984.2
2022-09-28T02:02:15.988Z,984.3
2022-09-28T02:03:16.875Z,984.3
2022-09-28T02:04:17.862Z,984.3
2022-09-28T02:05:18.849Z,984.3
2022-09-28T02:06:19.835Z,984.2
2022-09-28T02:07:20.874Z,984.2
2022-09-28T02:08:21.764Z,984.3
2022-09-28T02:09:22.833Z,984.3
2022-09-28T02:10:23.934Z,984.3
2022-09-28T02:11:24.796Z,984.3
2022-09-28T02:12:25.834Z,984.3
2022-09-28T02:13:26.859Z,984.3
2022-09-28T02:14:27.917Z,984.3
2022-09-28T02:15:28.975Z,984.3
2022-09-28T02:16:29.893Z,984.3
2022-09-28T02:17:30.935Z,984.3
2022-09-28T02:18:31.855Z,984.2
2022-09-28T02:19:32.895Z,984.3
2022-09-28T02:20:33.942Z,984.3
2022-09-28T02:21:34.815Z,984.2
2022-09-28T02:22:35.894Z,984.2
2022-09-28T02:23:36.915Z,984.3
2022-09-28T02:24:37.894Z,984.2
2022-09-28T02:25:38.835Z,984.3
2022-09-28T02:26:39.855Z,984.3
2022-09-28T02:27:40.902Z,984.4
2022-09-28T02:28:41.915Z,984.3
2022-09-28T02:29:42.896Z,984.3
2022-09-28T02:30:43.941Z,984
2022-09-28T02:31:44.968Z,984.3
2022-09-28T02:32:45.854Z,984.3
2022-09-28T02:33:46.955Z,984.3
2022-09-28T02:34:48.855Z,984.3
2022-09-28T02:35:49.902Z,984.4
2022-09-28T02:36:50.861Z,984.3
2022-09-28T02:37:51.874Z,984.3
2022-09-28T02:38:52.928Z,984.3
2022-09-28T02:39:53.884Z,984.2
2022-09-28T02:40:54.878Z,984.3
2022-09-28T02:41:55.880Z,984.2
2022-09-28T02:42:56.895Z,984.2
2022-09-28T02:43:58.014Z,984.2
2022-09-28T02:44:59.875Z,984.2
2022-09-28T02:46:01.009Z,984.2
2022-09-28T02:47:01.894Z,984.3
2022-09-28T02:48:02.845Z,984.2
2022-09-28T02:49:20.683Z,984.2
2022-09-28T02:50:06.055Z,984.2
2022-09-28T02:51:07.941Z,984.2
2022-09-28T02:52:08.894Z,984.2
2022-09-28T02:53:09.874Z,984.2
2022-09-28T02:54:12.624Z,984.2
2022-09-28T02:55:11.875Z,984.2
2022-09-28T02:56:12.914Z,984.2
2022-09-28T02:57:13.974Z,984.2
2022-09-28T02:58:15.855Z,984.2
2022-09-28T02:59:16.960Z,984.2
2022-09-28T03:00:17.915Z,984.2
2022-09-28T03:01:18.937Z,984.2
2022-09-28T03:02:21.025Z,984.2
2022-09-28T03:03:22.955Z,984.2
2022-09-28T03:04:24.874Z,984.2
2022-09-28T03:05:25.842Z,984.2
2022-09-28T03:06:26.962Z,984.2
2022-09-28T03:07:27.874Z,984.2
2022-09-28T03:08:28.895Z,984.2
2022-09-28T03:09:29.874Z,984.2
2022-09-28T03:10:30.914Z,984.2
2022-09-28T03:11:31.895Z,984.3
2022-09-28T03:12:32.942Z,984.3
2022-09-28T03:13:33.928Z,984.2
2022-09-28T03:14:35.854Z,984.2
2022-09-28T03:15:36.914Z,984.2
2022-09-28T03:16:38.026Z,984.2
2022-09-28T03:17:39.856Z,984.3
2022-09-28T03:18:40.875Z,984.2
2022-09-28T03:19:41.962Z,984.2
2022-09-28T03:20:42.895Z,984.2
2022-09-28T03:21:43.981Z,984.3
2022-09-28T03:22:55.957Z,984.3
2022-09-28T03:23:45.914Z,984.2
2022-09-28T03:24:46.915Z,984.2
2022-09-28T03:25:47.914Z,984.2
2022-09-28T03:26:48.921Z,984.2
2022-09-28T03:27:49.874Z,984.2
2022-09-28T03:28:51.040Z,984.2
2022-09-28T03:29:52.915Z,984.3
2022-09-28T03:30:53.902Z,983.7
2022-09-28T03:31:54.931Z,984.1
2022-09-28T03:32:55.917Z,984.2
2022-09-28T03:33:56.897Z,984.2
2022-09-28T03:34:57.854Z,984.2
2022-09-28T03:35:58.914Z,984.3
2022-09-28T03:36:59.959Z,984.2
2022-09-28T03:38:00.894Z,984.2
2022-09-28T03:39:01.894Z,984.2
2022-09-28T03:40:02.937Z,984.3
2022-09-28T03:41:04.057Z,984.3
2022-09-28T03:42:04.927Z,984.3
2022-09-28T03:43:05.914Z,984.3
2022-09-28T03:44:06.894Z,984.2
2022-09-28T03:45:07.915Z,984.3
2022-09-28T03:46:09.005Z,984.2
2022-09-28T03:47:09.896Z,984.2
2022-09-28T03:48:10.954Z,984.2
2022-09-28T03:49:11.916Z,984.2
2022-09-28T03:50:12.875Z,984.2
2022-09-28T03:51:13.915Z,984.2
2022-09-28T03:52:14.940Z,984.2
2022-09-28T03:53:15.937Z,984.2
2022-09-28T03:54:16.894Z,984.2
2022-09-28T03:55:17.887Z,984.2
2022-09-28T03:56:18.894Z,984.3
2022-09-28T03:57:19.885Z,984.3
2022-09-28T03:58:20.936Z,984.3
2022-09-28T03:59:21.927Z,984.2
2022-09-28T04:00:22.927Z,984.3
2022-09-28T04:01:23.982Z,984.2
2022-09-28T04:02:25.032Z,984.3
2022-09-28T04:03:26.975Z,984.2
2022-09-28T04:04:27.853Z,984.2
2022-09-28T04:05:28.894Z,984.3
2022-09-28T04:06:29.914Z,984.3
2022-09-28T04:07:31.374Z,984.2
2022-09-28T04:08:31.822Z,984.2
2022-09-28T04:09:32.875Z,984.2
2022-09-28T04:10:33.948Z,983.9
2022-09-28T04:11:53.101Z,984.2
2022-09-28T04:12:37.894Z,984.2
2022-09-28T04:13:39.017Z,984.2
2022-09-28T04:14:39.914Z,984.2
2022-09-28T04:15:40.874Z,984.2
2022-09-28T04:16:42.033Z,984.2
2022-09-28T04:17:42.957Z,984.3
2022-09-28T04:18:44.994Z,984.2
2022-09-28T04:19:46.974Z,984.2
2022-09-28T04:20:48.955Z,984.2
2022-09-28T04:21:51.275Z,984.2
2022-09-28T04:22:52.883Z,984.2
2022-09-28T04:23:53.994Z,984.2
2022-09-28T04:24:54.935Z,984.2
2022-09-28T04:25:55.974Z,984.1
2022-09-28T04:26:56.975Z,984.1
2022-09-28T04:27:57.875Z,984.1
2022-09-28T04:29:01.633Z,984.1
2022-09-28T04:30:00.962Z,984.1
2022-09-28T04:31:01.975Z,984.1
2022-09-28T04:32:03.105Z,984.1
2022-09-28T04:33:04.914Z,984.1
2022-09-28T04:34:06.957Z,984.1
2022-09-28T04:35:08.876Z,984.1
2022-09-28T04:36:09.894Z,984.1
2022-09-28T04:37:10.934Z,984.1
2022-09-28T04:38:11.947Z,984.1
2022-09-28T04:39:12.993Z,984.1
2022-09-28T04:40:15.117Z,984.2
2022-09-28T04:41:15.934Z,984.1
2022-09-28T04:42:17.002Z,984.1
2022-09-28T04:43:18.927Z,984.1
2022-09-28T04:44:19.994Z,984.1
2022-09-28T04:45:21.914Z,984.1
2022-09-28T04:46:22.924Z,984.1
2022-09-28T04:47:24.000Z,984.1
2022-09-28T04:48:25.995Z,984.1
2022-09-28T04:49:28.002Z,984.1
2022-09-28T04:50:28.914Z,984.1
2022-09-28T04:51:29.915Z,984.1
2022-09-28T04:52:31.002Z,984.1
2022-09-28T04:53:31.960Z,984.1
2022-09-28T04:54:32.974Z,984.1
2022-09-28T04:55:34.975Z,984.1
2022-09-28T04:56:36.975Z,984.1
2022-09-28T04:57:38.934Z,984.1
2022-09-28T04:58:39.999Z,984.1
2022-09-28T04:59:41.030Z,984.1
2022-09-28T05:00:42.025Z,984.1
2022-09-28T05:01:42.934Z,984.2
2022-09-28T05:02:44.135Z,984.1
2022-09-28T05:03:46.014Z,984.1
2022-09-28T05:04:47.076Z,984.1
2022-09-28T05:05:49.027Z,984.1
2022-09-28T05:06:51.497Z,984.1
2022-09-28T05:07:52.955Z,984.1
2022-09-28T05:08:54.041Z,984.1
2022-09-28T05:09:54.969Z,984.1
2022-09-28T05:10:55.955Z,984.1
2022-09-28T05:11:56.934Z,984.1
2022-09-28T05:12:57.954Z,984.1
2022-09-28T05:13:58.977Z,984.1
2022-09-28T05:14:59.995Z,984.1
2022-09-28T05:16:05.142Z,984.1
2022-09-28T05:17:02.050Z,984.1
2022-09-28T05:18:03.028Z,984.1
2022-09-28T05:19:03.983Z,984.1
2022-09-28T05:20:05.026Z,984.1
2022-09-28T05:21:05.989Z,984.1
2022-09-28T05:22:06.935Z,984.1
2022-09-28T05:23:07.920Z,984.1
2022-09-28T05:24:08.959Z,984.1
2022-09-28T05:25:09.912Z,984.1
2022-09-28T05:26:10.894Z,984.1
2022-09-28T05:27:11.955Z,984
2022-09-28T05:28:12.941Z,984.1
2022-09-28T05:29:14.069Z,984
2022-09-28T05:30:14.975Z,984.1
2022-09-28T05:31:16.062Z,984
2022-09-28T05:32:16.914Z,984
2022-09-28T05:33:18.014Z,984
2022-09-28T05:34:18.975Z,984
2022-09-28T05:35:19.915Z,984
2022-09-28T05:36:20.996Z,984
2022-09-28T05:37:21.916Z,984
2022-09-28T05:38:22.915Z,984.1
2022-09-28T05:39:24.020Z,984
2022-09-28T05:40:25.101Z,984
2022-09-28T05:41:26.914Z,984
2022-09-28T05:42:27.955Z,984
2022-09-28T05:43:28.925Z,984
2022-09-28T05:44:29.979Z,984
2022-09-28T05:45:31.019Z,984
2022-09-28T05:46:31.956Z,984
2022-09-28T05:47:32.959Z,984
2022-09-28T05:48:33.995Z,984
2022-09-28T05:49:35.012Z,983.9
2022-09-28T05:50:36.010Z,984
2022-09-28T05:51:36.924Z,983.9
2022-09-28T05:52:37.956Z,983.9
2022-09-28T05:53:38.994Z,983.9
2022-09-28T05:54:39.981Z,983.9
2022-09-28T05:55:41.056Z,983.9
2022-09-28T05:56:42.015Z,983.8
2022-09-28T05:57:43.014Z,983.9
2022-09-28T05:58:43.990Z,983.9
2022-09-28T05:59:45.995Z,983.8
2022-09-28T06:00:47.087Z,983.8
2022-09-28T06:01:47.956Z,983.8
2022-09-28T06:02:48.983Z,983.8
2022-09-28T06:03:49.907Z,983.8
2022-09-28T06:04:50.995Z,983.8
2022-09-28T06:05:52.434Z,983.9
2022-09-28T06:06:54.025Z,983.8
2022-09-28T06:07:54.955Z,983.8
2022-09-28T06:08:55.959Z,983.9
2022-09-28T06:09:56.985Z,983.9
2022-09-28T06:10:58.015Z,983.9
2022-09-28T06:11:58.885Z,984
2022-09-28T06:13:00.051Z,983.9
2022-09-28T06:14:01.014Z,983.9
2022-09-28T06:15:02.059Z,983.9
2022-09-28T06:16:03.070Z,983.9
2022-09-28T06:17:04.063Z,983.9
2022-09-28T06:18:04.955Z,983.7
2022-09-28T06:19:05.954Z,983.9
2022-09-28T06:20:06.998Z,983.9
2022-09-28T06:21:08.040Z,984
2022-09-28T06:22:09.009Z,983.9
2022-09-28T06:23:09.978Z,983.9
2022-09-28T06:24:11.079Z,984
2022-09-28T06:25:12.213Z,983.9
2022-09-28T06:26:14.075Z,984
2022-09-28T06:27:14.999Z,984
2022-09-28T06:28:15.918Z,984
2022-09-28T06:29:19.412Z,984
2022-09-28T06:30:18.074Z,984
2022-09-28T06:31:19.017Z,984
2022-09-28T06:32:19.994Z,984
2022-09-28T06:33:22.077Z,984
2022-09-28T06:34:23.029Z,984
2022-09-28T06:35:23.996Z,983.9
2022-09-28T06:36:25.015Z,983.9
2022-09-28T06:37:26.057Z,983.9
2022-09-28T06:38:27.004Z,983.9
2022-09-28T06:39:27.982Z,983.9
2022-09-28T06:40:29.195Z,983.9
2022-09-28T06:41:30.108Z,983.9
2022-09-28T06:42:31.975Z,983.8
2022-09-28T06:43:34.458Z,983.8
2022-09-28T06:44:35.088Z,983.9
2022-09-28T06:45:36.995Z,983.9
2022-09-28T06:46:38.274Z,983.9
2022-09-28T06:47:40.054Z,983.8
2022-09-28T06:48:41.196Z,983.8
2022-09-28T06:49:42.995Z,983.8
2022-09-28T06:50:44.059Z,983.7
2022-09-28T06:51:45.014Z,983.7
2022-09-28T06:52:45.995Z,983.6
2022-09-28T06:53:47.023Z,983.6
2022-09-28T06:54:48.019Z,983.6
2022-09-28T06:55:49.140Z,983.6
2022-09-28T06:56:51.017Z,983.6
2022-09-28T06:57:52.445Z,983.6
2022-09-28T06:58:54.075Z,983.5
2022-09-28T06:59:54.955Z,983.5
2022-09-28T07:00:56.049Z,983.5
2022-09-28T07:01:57.120Z,983.4
2022-09-28T07:02:58.094Z,983.5
2022-09-28T07:04:00.055Z,983.5
2022-09-28T07:05:00.983Z,983.5
2022-09-28T07:06:02.057Z,983.4
2022-09-28T07:07:03.095Z,983.4
2022-09-28T07:08:05.025Z,983.4
2022-09-28T07:09:20.778Z,983.3
2022-09-28T07:10:07.042Z,983.4
2022-09-28T07:11:08.081Z,983.4
2022-09-28T07:12:09.082Z,983.4
2022-09-28T07:13:22.364Z,983.4
2022-09-28T07:14:15.874Z,983.4
2022-09-28T07:15:12.096Z,983.4
2022-09-28T07:16:13.399Z,983.4
2022-09-28T07:17:15.340Z,983.4
2022-09-28T07:18:16.076Z,983.4
2022-09-28T07:19:17.017Z,983.4
2022-09-28T07:20:19.535Z,983.4
2022-09-28T07:21:27.012Z,983.5
2022-09-28T07:22:30.788Z,983.5
2022-09-28T07:23:23.043Z,983.5
2022-09-28T07:24:24.036Z,983.5
2022-09-28T07:25:25.006Z,983.6
2022-09-28T07:26:26.114Z,983.6
2022-09-28T07:27:28.983Z,983.6
2022-09-28T07:28:28.016Z,983.6
2022-09-28T07:29:29.115Z,983.6
2022-09-28T07:30:30.190Z,983.6
2022-09-28T07:31:31.115Z,983.6
2022-09-28T07:32:33.015Z,983.6
2022-09-28T07:33:34.096Z,983.8
2022-09-28T07:34:35.076Z,983.6
2022-09-28T07:35:36.096Z,983.6
2022-09-28T07:36:38.054Z,983.7
2022-09-28T07:37:39.155Z,983.6
2022-09-28T07:38:41.074Z,983.7
2022-09-28T07:39:42.115Z,983.6
2022-09-28T07:40:48.138Z,983.6
2022-09-28T07:41:46.066Z,983.6
2022-09-28T07:42:47.075Z,983.6
2022-09-28T07:43:48.115Z,983.6
2022-09-28T07:44:50.123Z,983.5
2022-09-28T07:45:52.134Z,983.5
2022-09-28T07:46:54.076Z,983.5
2022-09-28T07:47:55.035Z,983.5
2022-09-28T07:48:56.035Z,983.5
2022-09-28T07:49:57.035Z,983.5
2022-09-28T07:50:58.055Z,983.5
2022-09-28T07:51:59.020Z,983.4
2022-09-28T07:53:00.055Z,983.5
2022-09-28T07:54:01.058Z,983.4
2022-09-28T07:55:06.108Z,983.4
2022-09-28T07:56:03.103Z,983.4
2022-09-28T07:57:05.119Z,983.4
2022-09-28T07:58:06.135Z,983.4
2022-09-28T07:59:08.155Z,983.4
2022-09-28T08:00:10.232Z,983.4
2022-09-28T08:01:12.227Z,983.4
2022-09-28T08:02:14.239Z,983.4
2022-09-28T08:03:16.035Z,983.4
2022-09-28T08:04:17.048Z,983.4
2022-09-28T08:05:18.054Z,983.4
2022-09-28T08:06:19.008Z,983.4
2022-09-28T08:07:23.608Z,983.4
2022-09-28T08:08:21.123Z,983.6
2022-09-28T08:09:23.109Z,983.6
2022-09-28T08:10:25.154Z,983.5
2022-09-28T08:11:27.175Z,983.5
2022-09-28T08:12:29.102Z,983.5
2022-09-28T08:13:31.232Z,983.5
2022-09-28T08:14:33.155Z,983.4
2022-09-28T08:15:35.074Z,983.6
2022-09-28T08:16:39.150Z,983.5
2022-09-28T08:17:38.034Z,983.5
2022-09-28T08:18:39.114Z,983.6
2022-09-28T08:19:41.157Z,983.6
2022-09-28T08:20:43.114Z,983.6
2022-09-28T08:21:45.056Z,983.6
2022-09-28T08:22:46.077Z,983.7
2022-09-28T08:23:47.598Z,983.6
2022-09-28T08:24:49.095Z,983.6
2022-09-28T08:25:50.137Z,983.5
2022-09-28T08:26:51.075Z,983.5
2022-09-28T08:27:53.160Z,983.4
2022-09-28T08:28:55.183Z,983.4
2022-09-28T08:29:57.074Z,983.3
2022-09-28T08:30:58.156Z,983.4
2022-09-28T08:32:01.481Z,983.3
2022-09-28T08:33:01.063Z,983.4
2022-09-28T08:34:02.155Z,983.3
2022-09-28T08:35:03.115Z,983.3
2022-09-28T08:36:05.194Z,983.3
2022-09-28T08:37:07.118Z,983.1
2022-09-28T08:38:09.074Z,983.4
2022-09-28T08:39:10.175Z,983.2
2022-09-28T08:40:12.135Z,983.4
2022-09-28T08:41:13.095Z,983.4
2022-09-28T08:42:14.094Z,983.4
2022-09-28T08:43:16.140Z,983.3
2022-09-28T08:44:17.234Z,983.3
2022-09-28T08:45:19.095Z,983.3
2022-09-28T08:46:21.755Z,983.2
2022-09-28T08:47:21.080Z,983.2
2022-09-28T08:48:22.018Z,983.2
2022-09-28T08:49:25.622Z,983.2
2022-09-28T08:50:25.114Z,983.2
2022-09-28T08:51:26.076Z,983.2
2022-09-28T08:52:27.095Z,983.2
2022-09-28T08:53:28.141Z,983.3
2022-09-28T08:54:29.194Z,983.2
2022-09-28T08:55:31.199Z,983.2
2022-09-28T08:56:33.102Z,983.2
2022-09-28T08:57:34.114Z,983.2
2022-09-28T08:58:36.496Z,983.3
2022-09-28T08:59:38.115Z,983.3
2022-09-28T09:00:39.115Z,983.3
2022-09-28T09:01:40.208Z,983.3
2022-09-28T09:02:41.238Z,983.3
2022-09-28T09:03:43.104Z,983.2
2022-09-28T09:04:44.105Z,983.2
2022-09-28T09:05:46.115Z,983.2
2022-09-28T09:06:48.123Z,983.2
2022-09-28T09:07:49.108Z,983.2
2022-09-28T09:08:50.134Z,983.1
2022-09-28T09:09:51.058Z,983.1
2022-09-28T09:10:52.055Z,983.2
2022-09-28T09:11:53.136Z,983.2
2022-09-28T09:12:55.093Z,983.1
2022-09-28T09:13:56.120Z,983.2
2022-09-28T09:14:57.074Z,983.2
2022-09-28T09:15:58.172Z,983.2
2022-09-28T09:17:00.042Z,983.2
2022-09-28T09:18:01.162Z,983.3
2022-09-28T09:19:03.096Z,983.3
2022-09-28T09:20:04.223Z,983.2
2022-09-28T09:21:06.272Z,983.2
2022-09-28T09:22:08.148Z,983.1
2022-09-28T09:23:10.077Z,983
2022-09-28T09:24:11.170Z,983.1
2022-09-28T09:25:12.055Z,983
2022-09-28T09:26:14.910Z,983
2022-09-28T09:27:15.186Z,983
2022-09-28T09:28:17.062Z,983.1
2022-09-28T09:29:18.278Z,983.2
2022-09-28T09:30:20.639Z,983.1
2022-09-28T09:31:22.790Z,983.1
2022-09-28T09:32:22.100Z,983.2
2022-09-28T09:33:23.098Z,983.1
2022-09-28T09:34:24.103Z,983.1
2022-09-28T09:35:29.090Z,983.2
2022-09-28T09:36:26.389Z,983.2
2022-09-28T09:37:28.094Z,983.2
2022-09-28T09:38:29.135Z,983.1
2022-09-28T09:39:30.135Z,983.1
2022-09-28T09:40:31.190Z,983.1
2022-09-28T09:41:33.055Z,983
2022-09-28T09:42:34.175Z,983.1
2022-09-28T09:43:36.117Z,983
2022-09-28T09:44:38.180Z,983
2022-09-28T09:45:40.144Z,983
2022-09-28T09:46:41.076Z,983
2022-09-28T09:47:42.096Z,982.4
2022-09-28T09:48:43.067Z,982.8
2022-09-28T09:49:44.095Z,982.9
2022-09-28T09:50:45.137Z,983
2022-09-28T09:51:46.194Z,982.9
2022-09-28T09:52:47.115Z,983
2022-09-28T09:53:48.174Z,982.9
2022-09-28T09:54:49.224Z,983
2022-09-28T09:55:51.073Z,982.9
2022-09-28T09:56:52.108Z,982.9
2022-09-28T09:57:53.136Z,982.9
2022-09-28T09:58:54.210Z,982.9
2022-09-28T09:59:56.119Z,982.8
2022-09-28T10:00:57.178Z,982.8
2022-09-28T10:01:58.173Z,982.8
2022-09-28T10:02:59.181Z,982.9
2022-09-28T10:04:00.165Z,982.9
2022-09-28T10:05:01.135Z,982.9
2022-09-28T10:06:02.202Z,982.9
2022-09-28T10:07:04.142Z,983
2022-09-28T10:08:05.141Z,983
2022-09-28T10:09:06.196Z,983
2022-09-28T10:10:08.203Z,983
2022-09-28T10:11:10.014Z,983
2022-09-28T10:12:11.182Z,983
2022-09-28T10:13:13.124Z,983
2022-09-28T10:14:14.304Z,983
2022-09-28T10:15:16.194Z,983
2022-09-28T10:16:17.198Z,982.7
2022-09-28T10:17:18.095Z,982.9
2022-09-28T10:18:19.155Z,983
2022-09-28T10:19:20.055Z,983
2022-09-28T10:20:21.085Z,983
2022-09-28T10:21:23.179Z,983
2022-09-28T10:22:25.095Z,983.1
2022-09-28T10:23:26.125Z,983.1
2022-09-28T10:24:27.195Z,983
2022-09-28T10:25:28.097Z,983
2022-09-28T10:26:29.126Z,983
2022-09-28T10:27:30.062Z,983
2022-09-28T10:28:31.084Z,983
2022-09-28T10:29:32.129Z,983
2022-09-28T10:30:33.351Z,983
2022-09-28T10:31:35.184Z,983
2022-09-28T10:32:36.083Z,983
2022-09-28T10:33:37.115Z,983.1
2022-09-28T10:34:38.131Z,983
2022-09-28T10:35:39.104Z,983.1
2022-09-28T10:36:40.406Z,983.1
2022-09-28T10:37:42.066Z,983.1
2022-09-28T10:38:43.130Z,983.1
2022-09-28T10:39:44.177Z,983.1
2022-09-28T10:40:45.278Z,983.1
2022-09-28T10:41:46.183Z,983.1
2022-09-28T10:42:48.118Z,983.1
2022-09-28T10:43:50.177Z,983.2
2022-09-28T10:44:50.141Z,983.1
2022-09-28T10:45:51.223Z,983.2
2022-09-28T10:46:52.116Z,983.1
2022-09-28T10:47:53.292Z,983.2
2022-09-28T10:48:55.096Z,983.2
2022-09-28T10:49:56.234Z,983.3
2022-09-28T10:50:57.155Z,983.3
2022-09-28T10:51:58.135Z,983.3
2022-09-28T10:52:59.146Z,983.3
2022-09-28T10:54:00.196Z,983.3
2022-09-28T10:55:01.178Z,983.3
2022-09-28T10:56:02.183Z,983.3
2022-09-28T10:57:03.155Z,983.3
2022-09-28T10:58:04.115Z,983.4
2022-09-28T10:59:05.115Z,983.4
2022-09-28T11:00:06.270Z,983.4
2022-09-28T11:01:08.189Z,983.5
2022-09-28T11:02:09.283Z,983.6
2022-09-28T11:03:11.164Z,983.6
2022-09-28T11:04:12.116Z,983.6
2022-09-28T11:05:13.195Z,983.6
2022-09-28T11:06:15.125Z,983.6
2022-09-28T11:07:17.186Z,983.6
2022-09-28T11:08:17.122Z,983.6
2022-09-28T11:09:18.334Z,983.6
2022-09-28T11:10:21.656Z,983.6
2022-09-28T11:11:23.234Z,983.5
2022-09-28T11:12:25.095Z,983.6
2022-09-28T11:13:26.114Z,983.5
2022-09-28T11:14:27.234Z,983.6
2022-09-28T11:15:28.094Z,983.6
2022-09-28T11:16:29.228Z,983.5
2022-09-28T11:17:30.145Z,983.5
2022-09-28T11:18:31.127Z,983.5
2022-09-28T11:19:32.234Z,983.4
2022-09-28T11:20:33.234Z,983.4
2022-09-28T11:21:35.079Z,983.4
2022-09-28T11:22:36.176Z,983.3
2022-09-28T11:23:37.176Z,983.2
2022-09-28T11:24:39.116Z,983.2
2022-09-28T11:25:40.174Z,983.3
2022-09-28T11:26:41.108Z,983.3
2022-09-28T11:27:42.114Z,983.4
2022-09-28T11:28:43.114Z,983.3
2022-09-28T11:29:44.174Z,983.3
2022-09-28T11:30:45.233Z,983.3
2022-09-28T11:31:46.239Z,983.4
2022-09-28T11:32:47.234Z,983.4
2022-09-28T11:33:49.123Z,983.4
2022-09-28T11:35:00.350Z,983.3
2022-09-28T11:35:51.107Z,983.3
2022-09-28T11:36:52.155Z,983.3
2022-09-28T11:37:53.195Z,983.3
2022-09-28T11:38:55.148Z,983.4
2022-09-28T11:39:56.215Z,983.4
2022-09-28T11:40:57.246Z,983.4
2022-09-28T11:41:58.174Z,983.4
2022-09-28T11:42:59.194Z,983.4
2022-09-28T11:44:00.154Z,983.3
2022-09-28T11:45:01.134Z,983.3
2022-09-28T11:46:02.299Z,983.4
2022-09-28T11:47:03.182Z,983.4
2022-09-28T11:48:04.278Z,983.4
2022-09-28T11:49:06.203Z,983.3
2022-09-28T11:50:07.215Z,983.3
2022-09-28T11:51:09.134Z,983.3
2022-09-28T11:52:10.194Z,983.4
2022-09-28T11:53:11.221Z,983.4
2022-09-28T11:54:12.115Z,983.4
2022-09-28T11:55:13.182Z,983.4
2022-09-28T11:56:15.114Z,983.4
2022-09-28T11:57:16.175Z,983.4
2022-09-28T11:58:17.298Z,983.3
2022-09-28T11:59:19.104Z,983.3
2022-09-28T12:00:20.214Z,983.4
2022-09-28T12:01:21.222Z,983.4
2022-09-28T12:02:22.400Z,983.3
2022-09-28T12:03:24.336Z,983.1
2022-09-28T12:04:25.157Z,983.2
2022-09-28T12:05:26.175Z,983.3
2022-09-28T12:06:27.194Z,983.3
2022-09-28T12:07:28.174Z,983.3
2022-09-28T12:08:29.135Z,983.2
2022-09-28T12:09:30.415Z,983.2
2022-09-28T12:10:32.237Z,983.2
2022-09-28T12:11:33.174Z,983.3
2022-09-28T12:12:34.255Z,983.3
2022-09-28T12:13:35.115Z,983.2
2022-09-28T12:14:36.196Z,983.2
2022-09-28T12:15:52.998Z,983.2
2022-09-28T12:17:03.928Z,983.2
2022-09-28T12:17:40.239Z,983.2
2022-09-28T12:18:41.178Z,983.1
2022-09-28T12:19:42.206Z,983.1
2022-09-28T12:20:43.264Z,983
2022-09-28T12:21:45.150Z,983.1
2022-09-28T12:22:47.274Z,983
2022-09-28T12:23:49.235Z,983
2022-09-28T12:24:51.199Z,983
2022-09-28T12:25:52.215Z,983.1
2022-09-28T12:26:54.176Z,983.1
2022-09-28T12:27:56.215Z,983.1
2022-09-28T12:28:57.196Z,983
2022-09-28T12:29:59.294Z,983
2022-09-28T12:31:01.234Z,983
2022-09-28T12:32:03.315Z,983
2022-09-28T12:33:05.261Z,983
2022-09-28T12:34:07.303Z,983
2022-09-28T12:35:09.195Z,983
2022-09-28T12:36:10.125Z,983
2022-09-28T12:37:11.207Z,983
2022-09-28T12:38:12.223Z,983
2022-09-28T12:39:19.299Z,982.4
2022-09-28T12:40:16.240Z,982.8
2022-09-28T12:41:17.163Z,982.9
2022-09-28T12:42:19.239Z,982.9
2022-09-28T12:43:21.209Z,982.9
2022-09-28T12:44:23.235Z,982.9
2022-09-28T12:45:25.219Z,982.9
2022-09-28T12:46:27.268Z,982.9
2022-09-28T12:47:29.198Z,982.8
2022-09-28T12:48:31.259Z,982.8
2022-09-28T12:50:33.657Z,982.7
2022-09-28T12:50:40.066Z,982.7
2022-09-28T12:51:37.279Z,982.6
2022-09-28T12:52:39.189Z,982.6
2022-09-28T12:53:40.248Z,982.6
2022-09-28T12:54:42.258Z,982.6
2022-09-28T12:55:44.495Z,982.6
2022-09-28T12:56:46.174Z,982.6
2022-09-28T12:57:47.304Z,982.6
2022-09-28T12:58:49.226Z,982.5
2022-09-28T12:59:51.255Z,982.3
2022-09-28T13:00:53.316Z,982.4
2022-09-28T13:01:55.340Z,982.5
2022-09-28T13:02:57.346Z,982.5
2022-09-28T13:03:59.487Z,982.5
2022-09-28T13:05:01.244Z,982.5
2022-09-28T13:06:03.200Z,982.5
2022-09-28T13:07:05.257Z,982.5
2022-09-28T13:08:07.363Z,982.4
2022-09-28T13:09:09.122Z,982.5
2022-09-28T13:10:10.315Z,982.5
2022-09-28T13:11:11.197Z,982.5
2022-09-28T13:12:12.175Z,982.5
2022-09-28T13:13:13.160Z,982.5
2022-09-28T13:14:14.310Z,982.6
2022-09-28T13:15:16.287Z,982.5
2022-09-28T13:16:17.330Z,982.4
2022-09-28T13:17:18.215Z,982.4
2022-09-28T13:18:19.202Z,982.4